createdAt,value
2019-01-20T00:00:45.710Z,-1.53
2019-01-20T00:03:12.917Z,-1.61
2019-01-20T00:05:40.155Z,-1.62
2019-01-20T00:08:07.403Z,-1.60
2019-01-20T00:10:34.637Z,-1.69
2019-01-20T00:13:02.314Z,-1.63
2019-01-20T00:15:29.622Z,-1.60
2019-01-20T00:17:56.861Z,-1.58
2019-01-20T00:20:24.177Z,-1.55
2019-01-20T00:22:51.414Z,-1.54
2019-01-20T00:25:18.684Z,-1.59
2019-01-20T00:27:45.957Z,-1.57
2019-01-20T00:30:13.512Z,-1.57
2019-01-20T00:32:40.735Z,-1.55
2019-01-20T00:35:08.068Z,-1.55
2019-01-20T00:37:35.297Z,-1.56
2019-01-20T00:40:04.133Z,-1.55
2019-01-20T00:42:31.380Z,-1.57
2019-01-20T00:45:02.958Z,-1.59
2019-01-20T00:47:27.741Z,-1.62
2019-01-20T00:49:54.951Z,-1.61
2019-01-20T00:52:22.161Z,-1.63
2019-01-20T00:54:49.415Z,-1.61
2019-01-20T00:57:16.646Z,-1.62
2019-01-20T00:59:45.520Z,-1.64
2019-01-20T01:02:12.770Z,-1.63
2019-01-20T01:04:39.998Z,-1.65
2019-01-20T01:07:07.307Z,-1.71
2019-01-20T01:09:34.604Z,-1.71
2019-01-20T01:12:01.912Z,-1.70
2019-01-20T01:14:29.149Z,-1.71
2019-01-20T01:16:56.348Z,-1.72
2019-01-20T01:19:23.559Z,-1.75
2019-01-20T01:21:50.792Z,-1.75
2019-01-20T01:24:18.024Z,-1.77
2019-01-20T01:26:45.288Z,-1.76
2019-01-20T01:29:12.777Z,-1.75
2019-01-20T01:31:40.016Z,-1.76
2019-01-20T01:34:07.227Z,-1.75
2019-01-20T01:36:34.564Z,-1.75
2019-01-20T01:39:01.760Z,-1.74
2019-01-20T01:41:29.102Z,-1.73
2019-01-20T01:43:56.415Z,-1.75
2019-01-20T01:46:23.588Z,-1.76
2019-01-20T01:48:51.156Z,-1.77
2019-01-20T01:51:18.401Z,-1.79
2019-01-20T01:53:45.631Z,-1.81
2019-01-20T01:56:12.822Z,-1.84
2019-01-20T01:58:40.073Z,-1.85
2019-01-20T02:01:07.413Z,-1.86
2019-01-20T02:03:34.614Z,-1.86
2019-01-20T02:06:01.880Z,-1.89
2019-01-20T02:08:29.096Z,-1.88
2019-01-20T02:10:56.336Z,-1.90
2019-01-20T02:13:23.586Z,-1.95
2019-01-20T02:15:50.873Z,-1.94
2019-01-20T02:18:18.079Z,-1.94
2019-01-20T02:20:45.316Z,-1.96
2019-01-20T02:23:12.728Z,-1.97
2019-01-20T02:25:40.077Z,-2.03
2019-01-20T02:28:07.525Z,-2.02
2019-01-20T02:30:34.746Z,-2.03
2019-01-20T02:33:02.130Z,-2.16
2019-01-20T02:35:29.410Z,-2.08
2019-01-20T02:37:56.638Z,-2.06
2019-01-20T02:40:23.855Z,-2.13
2019-01-20T02:42:51.062Z,-2.09
2019-01-20T02:45:18.397Z,-2.05
2019-01-20T02:47:45.600Z,-2.09
2019-01-20T02:50:14.607Z,-2.11
2019-01-20T02:52:41.851Z,-2.10
2019-01-20T02:55:09.266Z,-2.12
2019-01-20T02:57:36.490Z,-2.10
2019-01-20T03:00:07.331Z,-2.09
2019-01-20T03:02:34.536Z,-2.07
2019-01-20T03:05:02.074Z,-2.06
2019-01-20T03:07:29.335Z,-2.05
2019-01-20T03:09:56.546Z,-2.05
2019-01-20T03:12:23.772Z,-2.05
2019-01-20T03:14:51.012Z,-2.04
2019-01-20T03:17:18.239Z,-2.04
2019-01-20T03:19:45.504Z,-2.02
2019-01-20T03:22:12.751Z,-2.03
2019-01-20T03:24:39.945Z,-2.04
2019-01-20T03:27:07.231Z,-2.01
2019-01-20T03:29:34.469Z,-2.02
2019-01-20T03:32:01.698Z,-2.02
2019-01-20T03:34:28.908Z,-2.04
2019-01-20T03:36:56.198Z,-2.03
2019-01-20T03:39:23.433Z,-2.03
2019-01-20T03:41:50.672Z,-2.03
2019-01-20T03:44:18.034Z,-2.04
2019-01-20T03:46:45.235Z,-2.04
2019-01-20T03:49:12.447Z,-2.08
2019-01-20T03:51:39.702Z,-2.07
2019-01-20T03:54:06.917Z,-2.07
2019-01-20T03:56:34.216Z,-2.06
2019-01-20T03:59:01.497Z,-2.06
2019-01-20T04:01:28.837Z,-2.06
2019-01-20T04:03:56.091Z,-2.06
2019-01-20T04:06:23.363Z,-2.07
2019-01-20T04:08:50.588Z,-2.08
2019-01-20T04:11:17.811Z,-2.10
2019-01-20T04:13:45.080Z,-2.09
2019-01-20T04:16:12.312Z,-2.12
2019-01-20T04:18:39.571Z,-2.15
2019-01-20T04:21:06.819Z,-2.16
2019-01-20T04:23:34.051Z,-2.15
2019-01-20T04:26:01.382Z,-2.19
2019-01-20T04:28:28.642Z,-2.24
2019-01-20T04:30:55.841Z,-2.23
2019-01-20T04:33:23.079Z,-2.22
2019-01-20T04:35:50.300Z,-2.19
2019-01-20T04:38:17.579Z,-2.16
2019-01-20T04:40:44.786Z,-2.15
2019-01-20T04:43:12.000Z,-2.15
2019-01-20T04:45:39.247Z,-2.18
2019-01-20T04:48:06.548Z,-2.28
2019-01-20T04:50:33.798Z,-2.27
2019-01-20T04:53:01.011Z,-2.25
2019-01-20T04:55:28.216Z,-2.25
2019-01-20T04:57:55.578Z,-2.26
2019-01-20T05:00:24.557Z,-2.27
2019-01-20T05:02:51.787Z,-2.26
2019-01-20T05:05:19.263Z,-2.32
2019-01-20T05:07:46.781Z,-2.46
2019-01-20T05:10:14.552Z,-2.37
2019-01-20T05:12:42.002Z,-2.32
2019-01-20T05:15:11.337Z,-2.30
2019-01-20T05:17:38.607Z,-2.26
2019-01-20T05:20:06.139Z,-2.23
2019-01-20T05:22:33.435Z,-2.23
2019-01-20T05:25:00.881Z,-2.19
2019-01-20T05:27:28.173Z,-2.15
2019-01-20T05:29:55.437Z,-2.15
2019-01-20T05:32:22.667Z,-2.13
2019-01-20T05:34:49.927Z,-2.12
2019-01-20T05:37:17.181Z,-2.12
2019-01-20T05:39:44.409Z,-2.12
2019-01-20T05:42:11.625Z,-2.12
2019-01-20T05:44:38.894Z,-2.12
2019-01-20T05:47:06.080Z,-2.13
2019-01-20T05:49:33.415Z,-2.14
2019-01-20T05:52:00.670Z,-2.16
2019-01-20T05:54:28.013Z,-2.16
2019-01-20T05:56:55.225Z,-2.17
2019-01-20T05:59:22.570Z,-2.18
2019-01-20T06:01:49.836Z,-2.18
2019-01-20T06:04:17.038Z,-2.18
2019-01-20T06:06:44.258Z,-2.20
2019-01-20T06:09:11.702Z,-2.22
2019-01-20T06:11:38.943Z,-2.24
2019-01-20T06:14:06.151Z,-2.23
2019-01-20T06:16:33.381Z,-2.24
2019-01-20T06:19:00.632Z,-2.25
2019-01-20T06:21:27.914Z,-2.25
2019-01-20T06:23:55.133Z,-2.23
2019-01-20T06:26:22.419Z,-2.25
2019-01-20T06:28:49.664Z,-2.22
2019-01-20T06:31:16.901Z,-2.43
2019-01-20T06:33:44.180Z,-2.49
2019-01-20T06:36:11.388Z,-2.41
2019-01-20T06:38:38.746Z,-2.34
2019-01-20T06:41:05.946Z,-2.29
2019-01-20T06:43:33.195Z,-2.29
2019-01-20T06:46:00.444Z,-2.28
2019-01-20T06:48:27.661Z,-2.29
2019-01-20T06:50:54.895Z,-2.32
2019-01-20T06:53:22.135Z,-2.37
2019-01-20T06:55:49.644Z,-2.44
2019-01-20T06:58:16.913Z,-2.39
2019-01-20T07:00:44.119Z,-2.38
2019-01-20T07:03:11.354Z,-2.35
2019-01-20T07:05:38.597Z,-2.38
2019-01-20T07:08:05.915Z,-2.36
2019-01-20T07:10:33.241Z,-2.33
2019-01-20T07:13:00.502Z,-2.32
2019-01-20T07:15:27.703Z,-2.32
2019-01-20T07:17:54.927Z,-2.35
2019-01-20T07:20:22.256Z,-2.41
2019-01-20T07:22:49.691Z,-2.40
2019-01-20T07:25:17.108Z,-2.44
2019-01-20T07:27:44.623Z,-2.49
2019-01-20T07:30:14.792Z,-2.70
2019-01-20T07:32:42.083Z,-2.60
2019-01-20T07:35:10.043Z,-2.50
2019-01-20T07:37:37.236Z,-2.43
2019-01-20T07:40:05.721Z,-2.35
2019-01-20T07:42:32.964Z,-2.29
2019-01-20T07:45:00.259Z,-2.23
2019-01-20T07:47:27.502Z,-2.16
2019-01-20T07:49:54.719Z,-2.11
2019-01-20T07:52:21.935Z,-2.06
2019-01-20T07:54:49.139Z,-2.00
2019-01-20T07:57:16.377Z,-2.00
2019-01-20T07:59:45.847Z,-2.02
2019-01-20T08:02:13.093Z,-2.07
2019-01-20T08:04:40.302Z,-2.07
2019-01-20T08:07:07.539Z,-1.98
2019-01-20T08:09:34.769Z,-1.93
2019-01-20T08:12:01.986Z,-1.85
2019-01-20T08:14:29.247Z,-1.74
2019-01-20T08:16:57.515Z,-1.66
2019-01-20T08:19:24.749Z,-1.59
2019-01-20T08:21:51.977Z,-1.50
2019-01-20T08:24:19.256Z,-1.47
2019-01-20T08:26:48.024Z,-1.47
2019-01-20T08:29:15.500Z,-1.62
2019-01-20T08:31:42.815Z,-1.52
2019-01-20T08:34:10.052Z,-1.52
2019-01-20T08:36:37.251Z,-1.53
2019-01-20T08:39:06.522Z,-1.57
2019-01-20T08:41:33.754Z,-1.40
2019-01-20T08:44:00.970Z,-1.39
2019-01-20T08:46:58.846Z,-1.35
2019-01-20T08:49:26.099Z,-1.69
2019-01-20T08:51:53.326Z,-1.61
2019-01-20T08:54:20.533Z,-1.57
2019-01-20T08:56:47.739Z,-1.21
2019-01-20T08:59:14.979Z,-1.21
2019-01-20T09:01:42.197Z,-0.98
2019-01-20T09:04:09.713Z,-0.77
2019-01-20T09:06:36.921Z,-0.94
2019-01-20T09:09:06.692Z,-1.19
2019-01-20T09:11:33.963Z,-0.94
2019-01-20T09:14:01.415Z,-0.68
2019-01-20T09:16:28.682Z,-0.73
2019-01-20T09:18:55.885Z,-0.77
2019-01-20T09:21:23.087Z,-0.50
2019-01-20T09:23:50.329Z,-0.31
2019-01-20T09:26:17.609Z,-0.20
2019-01-20T09:28:44.956Z,-0.09
2019-01-20T09:31:12.198Z,-0.36
2019-01-20T09:33:39.718Z,-0.25
2019-01-20T09:36:06.948Z,-0.14
2019-01-20T09:38:34.177Z,-0.16
2019-01-20T09:41:01.418Z,-0.09
2019-01-20T09:43:28.721Z,-0.17
2019-01-20T09:45:56.081Z,-0.13
2019-01-20T09:48:23.557Z,-0.27
2019-01-20T09:50:50.827Z,-0.27
2019-01-20T09:53:18.080Z,-0.22
2019-01-20T09:55:45.319Z,-0.42
2019-01-20T09:58:12.538Z,-0.22
2019-01-20T10:00:39.774Z,-0.53
2019-01-20T10:03:07.023Z,-0.32
2019-01-20T10:05:34.242Z,-0.26
2019-01-20T10:08:02.765Z,-0.40
2019-01-20T10:10:30.014Z,-0.35
2019-01-20T10:12:57.444Z,0.05
2019-01-20T10:15:24.777Z,0.09
2019-01-20T10:17:51.990Z,0.11
2019-01-20T10:20:24.596Z,0.05
2019-01-20T10:22:51.849Z,0.27
2019-01-20T10:25:19.192Z,0.40
2019-01-20T10:27:46.844Z,0.41
2019-01-20T10:30:17.567Z,0.21
2019-01-20T10:32:48.024Z,0.13
2019-01-20T10:35:14.840Z,0.33
2019-01-20T10:37:42.314Z,0.18
2019-01-20T10:40:09.523Z,0.24
2019-01-20T10:42:36.743Z,0.44
2019-01-20T10:45:05.267Z,0.53
2019-01-20T10:47:32.462Z,0.33
2019-01-20T10:49:59.711Z,0.48
2019-01-20T10:52:27.122Z,0.54
2019-01-20T10:54:54.360Z,0.74
2019-01-20T10:57:21.590Z,0.85
2019-01-20T10:59:48.843Z,0.97
2019-01-20T11:02:16.046Z,1.02
2019-01-20T11:04:43.271Z,1.02
2019-01-20T11:07:10.533Z,1.08
2019-01-20T11:09:37.777Z,1.25
2019-01-20T11:12:05.083Z,1.09
2019-01-20T11:14:32.319Z,0.99
2019-01-20T11:16:59.548Z,1.21
2019-01-20T11:19:26.905Z,1.35
2019-01-20T11:21:54.103Z,1.46
2019-01-20T11:24:21.350Z,1.30
2019-01-20T11:26:48.782Z,1.43
2019-01-20T11:29:16.067Z,1.55
2019-01-20T11:31:43.277Z,1.67
2019-01-20T11:34:10.521Z,1.77
2019-01-20T11:36:37.717Z,1.74
2019-01-20T11:39:09.376Z,1.74
2019-01-20T11:41:36.640Z,1.57
2019-01-20T11:44:03.870Z,1.39
2019-01-20T11:46:31.096Z,1.58
2019-01-20T11:48:58.347Z,1.28
2019-01-20T11:51:25.561Z,1.32
2019-01-20T11:53:52.771Z,1.42
2019-01-20T11:56:20.031Z,0.85
2019-01-20T11:58:47.239Z,1.16
2019-01-20T12:01:14.512Z,1.32
2019-01-20T12:03:41.734Z,1.30
2019-01-20T12:06:08.969Z,1.27
2019-01-20T12:08:36.201Z,1.34
2019-01-20T12:11:03.404Z,1.31
2019-01-20T12:13:30.825Z,1.30
2019-01-20T12:15:58.067Z,1.25
2019-01-20T12:18:25.287Z,1.37
2019-01-20T12:20:52.501Z,1.62
2019-01-20T12:23:19.746Z,1.70
2019-01-20T12:25:46.989Z,1.86
2019-01-20T12:28:14.303Z,1.59
2019-01-20T12:30:41.571Z,1.82
2019-01-20T12:33:08.914Z,1.93
2019-01-20T12:35:36.273Z,1.98
2019-01-20T12:38:03.802Z,1.90
2019-01-20T12:40:34.054Z,1.82
2019-01-20T12:43:01.227Z,1.57
2019-01-20T12:45:28.483Z,1.54
2019-01-20T12:47:55.680Z,1.69
2019-01-20T12:50:22.922Z,1.66
2019-01-20T12:52:50.176Z,1.43
2019-01-20T12:55:17.474Z,1.81
2019-01-20T12:57:47.128Z,1.89
2019-01-20T13:00:15.735Z,1.67
2019-01-20T13:02:42.957Z,1.92
2019-01-20T13:05:10.442Z,1.62
2019-01-20T13:07:37.662Z,1.72
2019-01-20T13:10:06.877Z,1.75
2019-01-20T13:12:34.151Z,1.92
2019-01-20T13:15:01.373Z,2.04
2019-01-20T13:17:28.621Z,2.14
2019-01-20T13:19:55.831Z,2.26
2019-01-20T13:22:23.058Z,2.37
2019-01-20T13:24:50.307Z,2.43
2019-01-20T13:27:17.531Z,2.43
2019-01-20T13:29:44.848Z,2.48
2019-01-20T13:32:12.056Z,2.43
2019-01-20T13:34:39.269Z,2.44
2019-01-20T13:37:06.515Z,2.43
2019-01-20T13:39:33.762Z,2.24
2019-01-20T13:42:00.971Z,2.34
2019-01-20T13:44:28.317Z,2.45
2019-01-20T13:46:55.567Z,2.55
2019-01-20T13:49:22.778Z,2.23
2019-01-20T13:51:50.024Z,2.32
2019-01-20T13:54:17.224Z,2.36
2019-01-20T13:56:44.489Z,2.36
2019-01-20T13:59:11.703Z,2.19
2019-01-20T14:01:38.917Z,1.88
2019-01-20T14:04:06.178Z,2.10
2019-01-20T14:06:34.311Z,2.29
2019-01-20T14:09:01.527Z,2.40
2019-01-20T14:11:28.797Z,2.50
2019-01-20T14:13:56.027Z,2.55
2019-01-20T14:16:23.245Z,2.48
2019-01-20T14:18:50.494Z,2.30
2019-01-20T14:21:17.717Z,2.26
2019-01-20T14:23:44.969Z,2.42
2019-01-20T14:26:12.243Z,2.50
2019-01-20T14:28:39.503Z,2.59
2019-01-20T14:31:06.788Z,2.62
2019-01-20T14:33:34.025Z,2.67
2019-01-20T14:36:01.233Z,2.69
2019-01-20T14:38:28.497Z,2.71
2019-01-20T14:40:55.703Z,2.75
2019-01-20T14:43:22.907Z,2.75
2019-01-20T14:45:50.165Z,2.63
2019-01-20T14:48:17.360Z,2.49
2019-01-20T14:50:44.590Z,2.59
2019-01-20T14:53:11.879Z,2.63
2019-01-20T14:55:39.088Z,2.64
2019-01-20T14:58:06.339Z,2.69
2019-01-20T15:00:35.208Z,2.74
2019-01-20T15:03:02.502Z,2.76
2019-01-20T15:05:29.976Z,2.80
2019-01-20T15:07:57.587Z,2.79
2019-01-20T15:10:24.899Z,2.77
2019-01-20T15:12:52.145Z,2.73
2019-01-20T15:15:21.931Z,2.73
2019-01-20T15:17:49.155Z,2.70
2019-01-20T15:20:16.401Z,2.68
2019-01-20T15:22:43.675Z,2.66
2019-01-20T15:25:11.930Z,2.66
2019-01-20T15:27:39.156Z,2.67
2019-01-20T15:30:11.514Z,2.67
2019-01-20T15:32:38.770Z,2.66
2019-01-20T15:35:06.197Z,2.66
2019-01-20T15:37:33.449Z,2.65
2019-01-20T15:40:00.674Z,2.66
2019-01-20T15:42:27.929Z,2.64
2019-01-20T15:44:55.404Z,2.60
2019-01-20T15:47:22.667Z,2.53
2019-01-20T15:49:49.942Z,2.49
2019-01-20T15:52:17.173Z,2.45
2019-01-20T15:54:44.413Z,2.41
2019-01-20T15:57:11.712Z,2.36
2019-01-20T15:59:39.226Z,2.34
2019-01-20T16:02:06.432Z,2.32
2019-01-20T16:04:33.688Z,2.28
2019-01-20T16:07:00.933Z,2.28
2019-01-20T16:09:28.158Z,2.27
2019-01-20T16:11:55.447Z,2.26
2019-01-20T16:14:22.957Z,2.26
2019-01-20T16:16:50.254Z,2.25
2019-01-20T16:19:17.742Z,2.21
2019-01-20T16:21:44.957Z,2.18
2019-01-20T16:24:12.212Z,2.16
2019-01-20T16:26:40.030Z,2.15
2019-01-20T16:29:07.286Z,2.11
2019-01-20T16:31:39.780Z,2.10
2019-01-20T16:34:03.720Z,2.09
2019-01-20T16:36:30.980Z,2.04
2019-01-20T16:38:58.201Z,2.00
2019-01-20T16:41:25.426Z,1.91
2019-01-20T16:43:52.616Z,1.91
2019-01-20T16:46:19.910Z,1.91
2019-01-20T16:48:47.156Z,1.88
2019-01-20T16:51:14.370Z,1.79
2019-01-20T16:53:41.589Z,1.77
2019-01-20T16:56:08.904Z,1.71
2019-01-20T16:58:36.153Z,1.64
2019-01-20T17:01:03.432Z,1.66
2019-01-20T17:03:30.685Z,1.56
2019-01-20T17:05:57.950Z,1.53
2019-01-20T17:08:25.171Z,1.57
2019-01-20T17:10:52.529Z,1.59
2019-01-20T17:13:19.780Z,1.54
2019-01-20T17:15:47.134Z,1.55
2019-01-20T17:18:15.076Z,1.55
2019-01-20T17:20:42.410Z,1.51
2019-01-20T17:23:09.777Z,1.48
2019-01-20T17:25:37.003Z,1.45
2019-01-20T17:28:04.482Z,1.44
2019-01-20T17:30:32.254Z,1.43
2019-01-20T17:32:59.757Z,1.40
2019-01-20T17:35:26.993Z,1.40
2019-01-20T17:37:54.268Z,1.38
2019-01-20T17:40:23.143Z,1.36
2019-01-20T17:42:50.386Z,1.35
2019-01-20T17:45:20.484Z,1.34
2019-01-20T17:47:48.113Z,1.34
2019-01-20T17:50:20.828Z,1.33
2019-01-20T17:52:48.926Z,1.33
2019-01-20T17:55:17.574Z,1.30
2019-01-20T17:57:44.949Z,1.30
2019-01-20T18:00:15.745Z,1.28
2019-01-20T18:02:43.072Z,1.26
2019-01-20T18:05:12.481Z,1.29
2019-01-20T18:07:39.748Z,1.24
2019-01-20T18:10:08.967Z,1.06
2019-01-20T18:12:36.220Z,1.06
2019-01-20T18:15:04.604Z,1.11
2019-01-20T18:17:31.869Z,1.05
2019-01-20T18:19:59.188Z,0.94
2019-01-20T18:22:26.654Z,1.02
2019-01-20T18:24:54.193Z,1.03
2019-01-20T18:27:21.403Z,1.07
2019-01-20T18:29:48.658Z,1.12
2019-01-20T18:32:15.917Z,1.14
2019-01-20T18:34:43.191Z,1.11
2019-01-20T18:37:10.514Z,1.03
2019-01-20T18:39:37.779Z,1.01
2019-01-20T18:42:05.001Z,1.03
2019-01-20T18:44:32.408Z,1.11
2019-01-20T18:46:59.632Z,1.14
2019-01-20T18:49:26.850Z,1.16
2019-01-20T18:51:54.099Z,1.09
2019-01-20T18:54:21.317Z,1.10
2019-01-20T18:56:48.551Z,1.08
2019-01-20T18:59:15.937Z,1.12
2019-01-20T19:01:43.154Z,1.15
2019-01-20T19:04:10.388Z,1.15
2019-01-20T19:06:37.628Z,1.17
2019-01-20T19:09:07.115Z,1.19
2019-01-20T19:11:34.344Z,1.20
2019-01-20T19:14:01.550Z,1.21
2019-01-20T19:16:28.828Z,1.20
2019-01-20T19:18:56.061Z,1.18
2019-01-20T19:21:23.361Z,1.20
2019-01-20T19:23:50.619Z,1.24
2019-01-20T19:26:17.833Z,1.24
2019-01-20T19:28:45.047Z,1.28
2019-01-20T19:31:12.339Z,1.30
2019-01-20T19:33:39.646Z,1.32
2019-01-20T19:36:08.204Z,1.30
2019-01-20T19:38:35.455Z,1.32
2019-01-20T19:41:02.689Z,1.32
2019-01-20T19:43:29.945Z,1.33
2019-01-20T19:45:57.275Z,1.33
2019-01-20T19:48:24.496Z,1.34
2019-01-20T19:50:51.797Z,1.34
2019-01-20T19:53:19.020Z,1.35
2019-01-20T19:55:46.286Z,1.34
2019-01-20T19:58:13.554Z,1.35
2019-01-20T20:00:40.805Z,1.35
2019-01-20T20:03:08.048Z,1.36
2019-01-20T20:05:35.275Z,1.36
2019-01-20T20:08:02.893Z,1.37
2019-01-20T20:10:30.128Z,1.37
2019-01-20T20:12:57.808Z,1.36
2019-01-20T20:15:25.594Z,1.34
2019-01-20T20:17:53.042Z,1.34
2019-01-20T20:20:20.584Z,1.34
2019-01-20T20:22:48.180Z,1.34
2019-01-20T20:25:16.440Z,1.33
2019-01-20T20:27:43.784Z,1.34
2019-01-20T20:30:14.169Z,1.32
2019-01-20T20:32:41.475Z,1.32
2019-01-20T20:35:08.856Z,1.29
2019-01-20T20:37:36.156Z,1.28
2019-01-20T20:40:04.839Z,1.25
2019-01-20T20:42:32.226Z,1.21
2019-01-20T20:44:59.439Z,1.18
2019-01-20T20:47:26.708Z,1.15
2019-01-20T20:49:53.931Z,1.14
2019-01-20T20:52:21.665Z,1.10
2019-01-20T20:54:48.907Z,1.06
2019-01-20T20:57:16.170Z,1.06
2019-01-20T20:59:43.551Z,1.02
2019-01-20T21:02:10.868Z,0.99
2019-01-20T21:04:38.119Z,0.96
2019-01-20T21:07:05.333Z,0.93
2019-01-20T21:09:33.903Z,0.90
2019-01-20T21:12:01.139Z,0.85
2019-01-20T21:14:28.516Z,0.81
2019-01-20T21:16:55.777Z,0.76
2019-01-20T21:19:23.013Z,0.76
2019-01-20T21:21:52.437Z,0.74
2019-01-20T21:24:19.669Z,0.71
2019-01-20T21:26:46.954Z,0.67
2019-01-20T21:29:14.190Z,0.64
2019-01-20T21:31:41.619Z,0.62
2019-01-20T21:34:08.892Z,0.57
2019-01-20T21:36:36.107Z,0.55
2019-01-20T21:39:06.367Z,0.52
2019-01-20T21:41:33.617Z,0.49
2019-01-20T21:44:00.860Z,0.47
2019-01-20T21:46:28.142Z,0.46
2019-01-20T21:48:55.423Z,0.43
2019-01-20T21:51:22.686Z,0.39
2019-01-20T21:53:49.897Z,0.38
2019-01-20T21:56:17.235Z,0.36
2019-01-20T21:58:44.540Z,0.35
2019-01-20T22:01:11.780Z,0.32
2019-01-20T22:03:39.024Z,0.30
2019-01-20T22:06:09.148Z,0.27
2019-01-20T22:08:37.431Z,0.23
2019-01-20T22:11:04.683Z,0.18
2019-01-20T22:13:32.028Z,0.17
2019-01-20T22:15:59.314Z,0.12
2019-01-20T22:18:26.547Z,0.09
2019-01-20T22:20:53.896Z,0.06
2019-01-20T22:23:21.174Z,0.03
2019-01-20T22:25:48.398Z,0.02
2019-01-20T22:28:15.691Z,0.01
2019-01-20T22:30:42.945Z,-0.03
2019-01-20T22:33:10.344Z,-0.06
2019-01-20T22:35:37.613Z,-0.08
2019-01-20T22:38:04.831Z,-0.11
2019-01-20T22:40:32.098Z,-0.12
2019-01-20T22:42:59.331Z,-0.12
2019-01-20T22:45:27.102Z,-0.16
2019-01-20T22:47:54.493Z,-0.18
2019-01-20T22:50:21.965Z,-0.21
2019-01-20T22:52:49.157Z,-0.24
2019-01-20T22:55:16.562Z,-0.27
2019-01-20T22:57:44.153Z,-0.28
2019-01-20T23:00:23.305Z,-0.29
2019-01-20T23:02:50.623Z,-0.31
2019-01-20T23:05:17.832Z,-0.32
2019-01-20T23:07:45.078Z,-0.36
2019-01-20T23:10:12.287Z,-0.37
2019-01-20T23:12:39.541Z,-0.39
2019-01-20T23:15:07.614Z,-0.40
2019-01-20T23:17:34.807Z,-0.44
2019-01-20T23:20:02.044Z,-0.47
2019-01-20T23:22:29.272Z,-0.48
2019-01-20T23:24:56.527Z,-0.48
2019-01-20T23:27:23.819Z,-0.48
2019-01-20T23:29:51.043Z,-0.50
2019-01-20T23:32:18.271Z,-0.51
2019-01-20T23:34:45.477Z,-0.52
2019-01-20T23:37:12.683Z,-0.54
2019-01-20T23:39:39.968Z,-0.55
2019-01-20T23:42:07.184Z,-0.55
2019-01-20T23:44:34.442Z,-0.56
2019-01-20T23:47:01.693Z,-0.57
2019-01-20T23:49:28.913Z,-0.59
2019-01-20T23:51:56.180Z,-0.61
2019-01-20T23:54:23.460Z,-0.67
2019-01-20T23:56:50.652Z,-0.66
2019-01-20T23:59:17.870Z,-0.68
